メインページ
METAR-TAF:

METAR-TAF

空港 :

ヴァーツラフ・ハヴェル・プラハ国際空港

プラハ, チェコ共和国

緯度: 50-06N, 経度: 014-15E, 海抜: 365m

現時点の気象観測

当レポートは17分前の03:00(UTC)に作成
西の風 8kt
気温 4°C
湿度 81%
気圧 1033 hPa
視程10km以上
1,500メートル以下は雲なし、積乱雲なし

METAR: LKPR 250300Z 28008KT CAVOK 04/01 Q1033 NOSIG

時間: 05:17 (03:17 UTC)

予報

当レポートは4時間17分前の23:00(UTC)に作成
予報は25日の 00時(UTC)から 26日の 06時(UTC)まで有効
西/北西の風 12kt
視程10km以上
1,500メートル以下は雲なし、積乱雲なし
25日の 08時(UTC)から 25日の 13時(UTC)まで一時的に
北西の風 12kt、最大24ktの突風を伴う
25日の 09時(UTC)から 25日の 16時(UTC)まで一時的に
視程10km以上
高度3500ftの雲は散在している
25日の 18時(UTC)から 25日の 20時(UTC)まで徐々に
変向風 2kt

TAF: LKPR 242300Z 2500/2606 29012KT CAVOK TEMPO 2508/2513 31012G24KT TEMPO 2509/2516 9999 SCT035 BECMG 2518/2520 VRB02KT

4,000以上の空港の気象観測と天気予報(METAR報とTAF報)

利用可能な観測所は地図上に黄色い丸と赤い丸で示す。

丸の上にカーソルを重ねると観測所名を参照できる。

次にクリックすると気象観測と天気予報を参照できる。

マップの切り替え:黒色「×」印の緑ボタンをクリックして拡大、「-」印の緑ボタンをクリックして縮小、緑色の三角印をクリックして隣りの地図に切り替え


METAR-TAF: